PHDRT LEMD-LETI
Flight info
| Callsign | PHDRT |
|---|---|
| Flight time | 0h 39m |
| Altitude | 3000 |
| Route | PEDRTALAVES |
| Aircraft | PA24/L-SDGRY/S |
Departure
| Time | 2026-05-06 09:35 |
|---|---|
| Airport | Adolfo Suárez Madrid–Barajas Airport (LEMD) |
Arrival
| Time | 2026-05-06 10:15 |
|---|---|
| Airport | El Tietar Airfield (LETI) |
| Time | Latitude | Longitude | Altitude | Speed | Heading |
|---|---|---|---|---|---|
| 2026-05-06 09:12 | 40.45721 | -3.57625 | 1975 ft | 0 kts | 53° |
| 2026-05-06 09:20 | 40.45722 | -3.57622 | 1975 ft | 0 kts | 55° |
| 2026-05-06 09:24 | 40.45724 | -3.57617 | 1975 ft | 2 kts | 73° |
| 2026-05-06 09:24 | 40.45725 | -3.57609 | 1975 ft | 0 kts | 88° |
| 2026-05-06 09:25 | 40.45713 | -3.57595 | 1978 ft | 6 kts | 164° |
| 2026-05-06 09:25 | 40.45702 | -3.57569 | 1977 ft | 7 kts | 36° |
| 2026-05-06 09:25 | 40.45748 | -3.57521 | 1975 ft | 10 kts | 40° |
| 2026-05-06 09:25 | 40.45790 | -3.57470 | 1978 ft | 6 kts | 44° |
| 2026-05-06 09:26 | 40.45764 | -3.57415 | 1975 ft | 10 kts | 121° |
| 2026-05-06 09:26 | 40.45788 | -3.57348 | 1977 ft | 8 kts | 46° |
| 2026-05-06 09:26 | 40.45832 | -3.57289 | 1975 ft | 8 kts | 46° |
| 2026-05-06 09:26 | 40.45849 | -3.57265 | 1975 ft | 0 kts | 47° |
| 2026-05-06 09:27 | 40.45877 | -3.57228 | 1975 ft | 13 kts | 44° |
| 2026-05-06 09:27 | 40.45930 | -3.57151 | 1978 ft | 8 kts | 53° |
| 2026-05-06 09:27 | 40.45963 | -3.57105 | 1976 ft | 9 kts | 42° |
| 2026-05-06 09:27 | 40.46029 | -3.57092 | 1975 ft | 9 kts | 14° |
| 2026-05-06 09:28 | 40.46078 | -3.57032 | 1975 ft | 10 kts | 49° |
| 2026-05-06 09:28 | 40.46125 | -3.56956 | 1975 ft | 11 kts | 50° |
| 2026-05-06 09:28 | 40.46169 | -3.56891 | 1976 ft | 9 kts | 48° |
| 2026-05-06 09:28 | 40.46220 | -3.56838 | 1977 ft | 11 kts | 34° |
| 2026-05-06 09:29 | 40.46281 | -3.56761 | 1976 ft | 14 kts | 60° |
| 2026-05-06 09:29 | 40.46295 | -3.56627 | 1975 ft | 16 kts | 91° |
| 2026-05-06 09:29 | 40.46296 | -3.56476 | 1975 ft | 17 kts | 89° |
| 2026-05-06 09:29 | 40.46294 | -3.56317 | 1975 ft | 18 kts | 90° |
| 2026-05-06 09:30 | 40.46295 | -3.56156 | 1975 ft | 18 kts | 89° |
| 2026-05-06 09:30 | 40.46294 | -3.55992 | 1975 ft | 18 kts | 92° |
| 2026-05-06 09:30 | 40.46294 | -3.55836 | 1975 ft | 14 kts | 93° |
| 2026-05-06 09:30 | 40.46273 | -3.55744 | 1975 ft | 9 kts | 139° |
| 2026-05-06 09:31 | 40.46205 | -3.55660 | 1976 ft | 0 kts | 148° |
| 2026-05-06 09:31 | 40.46179 | -3.55637 | 1977 ft | 16 kts | 146° |
| 2026-05-06 09:31 | 40.46041 | -3.55517 | 1976 ft | 27 kts | 144° |
| 2026-05-06 09:32 | 40.45918 | -3.55380 | 1976 ft | 20 kts | 137° |
| 2026-05-06 09:32 | 40.45836 | -3.55292 | 1975 ft | 3 kts | 131° |
| 2026-05-06 09:32 | 40.45862 | -3.55235 | 1977 ft | 16 kts | 51° |
| 2026-05-06 09:32 | 40.45919 | -3.55146 | 1975 ft | 6 kts | 45° |
| 2026-05-06 09:33 | 40.45924 | -3.55143 | 1975 ft | 0 kts | 20° |
| 2026-05-06 09:33 | 40.45953 | -3.55118 | 1976 ft | 11 kts | 33° |
| 2026-05-06 09:34 | 40.46046 | -3.55125 | 1975 ft | 18 kts | 329° |
| 2026-05-06 09:34 | 40.46222 | -3.55315 | 1975 ft | 61 kts | 326° |
| 2026-05-06 09:34 | 40.46645 | -3.55754 | 2042 ft | 87 kts | 321° |
| 2026-05-06 09:34 | 40.47162 | -3.56276 | 2206 ft | 98 kts | 326° |
| 2026-05-06 09:35 | 40.47700 | -3.56811 | 2447 ft | 97 kts | 323° |
| 2026-05-06 09:35 | 40.48208 | -3.57388 | 2653 ft | 98 kts | 319° |
| 2026-05-06 09:35 | 40.48695 | -3.58005 | 2881 ft | 98 kts | 314° |
| 2026-05-06 09:35 | 40.49090 | -3.58778 | 3003 ft | 107 kts | 287° |
| 2026-05-06 09:36 | 40.49122 | -3.59752 | 3198 ft | 109 kts | 264° |
| 2026-05-06 09:36 | 40.49021 | -3.60737 | 3375 ft | 113 kts | 262° |
| 2026-05-06 09:36 | 40.48934 | -3.61866 | 3307 ft | 130 kts | 265° |
| 2026-05-06 09:36 | 40.48861 | -3.63062 | 3328 ft | 136 kts | 266° |
| 2026-05-06 09:37 | 40.48819 | -3.64258 | 3520 ft | 123 kts | 269° |
| 2026-05-06 09:37 | 40.48805 | -3.65409 | 3497 ft | 131 kts | 268° |
| 2026-05-06 09:37 | 40.48735 | -3.66529 | 3646 ft | 120 kts | 264° |
| 2026-05-06 09:37 | 40.48612 | -3.67707 | 3471 ft | 132 kts | 255° |
| 2026-05-06 09:38 | 40.48165 | -3.68663 | 3594 ft | 122 kts | 223° |
| 2026-05-06 09:38 | 40.47351 | -3.69108 | 3448 ft | 133 kts | 186° |
| 2026-05-06 09:38 | 40.46393 | -3.69153 | 3199 ft | 147 kts | 181° |
| 2026-05-06 09:38 | 40.45382 | -3.69133 | 3157 ft | 142 kts | 176° |
| 2026-05-06 09:39 | 40.44439 | -3.68967 | 3203 ft | 134 kts | 172° |
| 2026-05-06 09:39 | 40.43473 | -3.68792 | 3073 ft | 139 kts | 173° |
| 2026-05-06 09:39 | 40.42523 | -3.68636 | 3034 ft | 138 kts | 174° |
| 2026-05-06 09:39 | 40.41548 | -3.68580 | 2975 ft | 140 kts | 185° |
| 2026-05-06 09:40 | 40.40612 | -3.68891 | 2959 ft | 138 kts | 204° |
| 2026-05-06 09:40 | 40.39809 | -3.69565 | 2953 ft | 138 kts | 221° |
| 2026-05-06 09:40 | 40.38810 | -3.71617 | 2961 ft | 133 kts | 255° |
| 2026-05-06 09:41 | 40.38684 | -3.72794 | 2962 ft | 132 kts | 271° |
| 2026-05-06 09:41 | 40.38812 | -3.73979 | 2963 ft | 131 kts | 288° |
| 2026-05-06 09:41 | 40.39188 | -3.75061 | 2947 ft | 130 kts | 304° |
| 2026-05-06 09:41 | 40.39776 | -3.75947 | 2948 ft | 129 kts | 321° |
| 2026-05-06 09:42 | 40.40527 | -3.76576 | 2949 ft | 128 kts | 336° |
| 2026-05-06 09:42 | 40.41379 | -3.76902 | 2949 ft | 128 kts | 353° |
| 2026-05-06 09:42 | 40.42263 | -3.76886 | 2945 ft | 127 kts | 9° |
| 2026-05-06 09:42 | 40.43105 | -3.76536 | 2950 ft | 127 kts | 26° |
| 2026-05-06 09:43 | 40.43895 | -3.76022 | 2953 ft | 127 kts | 13° |
| 2026-05-06 09:43 | 40.44753 | -3.76176 | 2951 ft | 127 kts | 332° |
| 2026-05-06 09:43 | 40.45409 | -3.76947 | 2950 ft | 128 kts | 312° |
| 2026-05-06 09:43 | 40.45988 | -3.77831 | 2947 ft | 128 kts | 305° |
| 2026-05-06 09:44 | 40.46417 | -3.78851 | 2953 ft | 128 kts | 297° |
| 2026-05-06 09:44 | 40.46813 | -3.79896 | 2950 ft | 128 kts | 296° |
| 2026-05-06 09:44 | 40.47207 | -3.80944 | 2953 ft | 128 kts | 296° |
| 2026-05-06 09:44 | 40.47580 | -3.81930 | 2963 ft | 128 kts | 296° |
| 2026-05-06 09:45 | 40.47875 | -3.82701 | 2966 ft | 130 kts | 296° |
| 2026-05-06 09:45 | 40.48277 | -3.83760 | 2957 ft | 129 kts | 296° |
| 2026-05-06 09:45 | 40.48675 | -3.84818 | 2954 ft | 129 kts | 296° |
| 2026-05-06 09:46 | 40.49066 | -3.85859 | 3027 ft | 123 kts | 296° |
| 2026-05-06 09:46 | 40.49447 | -3.86873 | 3017 ft | 126 kts | 296° |
| 2026-05-06 09:46 | 40.49788 | -3.87783 | 3330 ft | 100 kts | 296° |
| 2026-05-06 09:46 | 40.50108 | -3.88639 | 3450 ft | 99 kts | 295° |
| 2026-05-06 09:47 | 40.50383 | -3.89375 | 3755 ft | 94 kts | 294° |
| 2026-05-06 09:47 | 40.50641 | -3.90224 | 3951 ft | 94 kts | 287° |
| 2026-05-06 09:47 | 40.50842 | -3.91005 | 4167 ft | 96 kts | 286° |
| 2026-05-06 09:47 | 40.51056 | -3.91828 | 4367 ft | 92 kts | 287° |
| 2026-05-06 09:48 | 40.51275 | -3.92668 | 4432 ft | 101 kts | 288° |
| 2026-05-06 09:48 | 40.51493 | -3.93527 | 4591 ft | 101 kts | 287° |
| 2026-05-06 09:48 | 40.51717 | -3.94423 | 4718 ft | 101 kts | 287° |
| 2026-05-06 09:48 | 40.51932 | -3.95304 | 4809 ft | 106 kts | 287° |
| 2026-05-06 09:49 | 40.52159 | -3.96252 | 4877 ft | 111 kts | 287° |
| 2026-05-06 09:49 | 40.52387 | -3.97221 | 4987 ft | 110 kts | 287° |
| 2026-05-06 09:49 | 40.52629 | -3.98260 | 4881 ft | 128 kts | 287° |
| 2026-05-06 09:49 | 40.52888 | -3.99383 | 4917 ft | 129 kts | 287° |
| 2026-05-06 09:50 | 40.53144 | -4.00505 | 4972 ft | 129 kts | 287° |
| 2026-05-06 09:50 | 40.53402 | -4.01647 | 4975 ft | 131 kts | 286° |
| 2026-05-06 09:50 | 40.53662 | -4.02805 | 4974 ft | 132 kts | 286° |
| 2026-05-06 09:50 | 40.53921 | -4.03966 | 4969 ft | 132 kts | 286° |
| 2026-05-06 09:51 | 40.54179 | -4.05125 | 4969 ft | 132 kts | 286° |
| 2026-05-06 09:51 | 40.54436 | -4.06284 | 4968 ft | 132 kts | 286° |
| 2026-05-06 09:51 | 40.54691 | -4.07439 | 4967 ft | 132 kts | 286° |
| 2026-05-06 09:51 | 40.54946 | -4.08596 | 4967 ft | 132 kts | 286° |
| 2026-05-06 09:52 | 40.55243 | -4.09736 | 4932 ft | 134 kts | 301° |
| 2026-05-06 09:52 | 40.55952 | -4.10545 | 4832 ft | 138 kts | 330° |
| 2026-05-06 09:52 | 40.56778 | -4.11047 | 4927 ft | 131 kts | 335° |
| 2026-05-06 09:52 | 40.57644 | -4.11619 | 4747 ft | 138 kts | 329° |
| 2026-05-06 09:53 | 40.58443 | -4.12325 | 4509 ft | 140 kts | 322° |
| 2026-05-06 09:53 | 40.59083 | -4.13300 | 4285 ft | 142 kts | 296° |
| 2026-05-06 09:53 | 40.59284 | -4.14527 | 4119 ft | 142 kts | 260° |
| 2026-05-06 09:53 | 40.58604 | -4.15407 | 3990 ft | 142 kts | 189° |
| 2026-05-06 09:54 | 40.57712 | -4.15072 | 4019 ft | 141 kts | 148° |
| 2026-05-06 09:54 | 40.56908 | -4.14330 | 4004 ft | 139 kts | 144° |
| 2026-05-06 09:54 | 40.56137 | -4.13591 | 4005 ft | 138 kts | 143° |
| 2026-05-06 09:54 | 40.55368 | -4.12803 | 3959 ft | 141 kts | 142° |
| 2026-05-06 09:55 | 40.54595 | -4.12048 | 3950 ft | 140 kts | 155° |
| 2026-05-06 09:55 | 40.53596 | -4.11974 | 3826 ft | 150 kts | 199° |
| 2026-05-06 09:55 | 40.52826 | -4.12773 | 4030 ft | 135 kts | 230° |
| 2026-05-06 09:55 | 40.52233 | -4.13695 | 4134 ft | 134 kts | 229° |
| 2026-05-06 09:56 | 40.51581 | -4.14624 | 4139 ft | 139 kts | 227° |
| 2026-05-06 09:56 | 40.50942 | -4.15532 | 4288 ft | 134 kts | 228° |
| 2026-05-06 09:56 | 40.50300 | -4.16446 | 4299 ft | 138 kts | 228° |
| 2026-05-06 09:56 | 40.49652 | -4.17363 | 4401 ft | 135 kts | 228° |
| 2026-05-06 09:57 | 40.49012 | -4.18269 | 4459 ft | 137 kts | 228° |
| 2026-05-06 09:57 | 40.48584 | -4.18876 | 4492 ft | 138 kts | 227° |
| 2026-05-06 09:57 | 40.48085 | -4.19588 | 4574 ft | 136 kts | 227° |
| 2026-05-06 09:57 | 40.47443 | -4.20503 | 4627 ft | 137 kts | 227° |
| 2026-05-06 09:58 | 40.46793 | -4.21428 | 4691 ft | 138 kts | 227° |
| 2026-05-06 09:58 | 40.46363 | -4.22041 | 4759 ft | 137 kts | 227° |
| 2026-05-06 09:58 | 40.45715 | -4.22964 | 4821 ft | 138 kts | 227° |
| 2026-05-06 09:58 | 40.45060 | -4.23890 | 4893 ft | 138 kts | 227° |
| 2026-05-06 09:59 | 40.44406 | -4.24814 | 4966 ft | 138 kts | 227° |
| 2026-05-06 09:59 | 40.43748 | -4.25739 | 5028 ft | 139 kts | 227° |
| 2026-05-06 09:59 | 40.43089 | -4.26665 | 5109 ft | 139 kts | 227° |
| 2026-05-06 09:59 | 40.42428 | -4.27593 | 5165 ft | 139 kts | 227° |
| 2026-05-06 10:00 | 40.41549 | -4.28823 | 5245 ft | 139 kts | 227° |
| 2026-05-06 10:00 | 40.41098 | -4.29445 | 5300 ft | 139 kts | 227° |
| 2026-05-06 10:00 | 40.40264 | -4.30728 | 5350 ft | 143 kts | 245° |
| 2026-05-06 10:00 | 40.40082 | -4.31592 | 5310 ft | 146 kts | 260° |
| 2026-05-06 10:01 | 40.39714 | -4.34390 | 5497 ft | 144 kts | 261° |
| 2026-05-06 10:01 | 40.39551 | -4.35672 | 5632 ft | 137 kts | 261° |
| 2026-05-06 10:01 | 40.39394 | -4.36891 | 5661 ft | 140 kts | 261° |
| 2026-05-06 10:02 | 40.39228 | -4.38177 | 5718 ft | 140 kts | 261° |
| 2026-05-06 10:02 | 40.39031 | -4.39382 | 5795 ft | 137 kts | 256° |
| 2026-05-06 10:02 | 40.38778 | -4.40606 | 5821 ft | 139 kts | 256° |
| 2026-05-06 10:02 | 40.38522 | -4.41823 | 5912 ft | 137 kts | 256° |
| 2026-05-06 10:03 | 40.38267 | -4.43037 | 5962 ft | 139 kts | 256° |
| 2026-05-06 10:03 | 40.38012 | -4.44258 | 6024 ft | 138 kts | 256° |
| 2026-05-06 10:03 | 40.37754 | -4.45475 | 6071 ft | 139 kts | 256° |
| 2026-05-06 10:03 | 40.37498 | -4.46702 | 6107 ft | 140 kts | 256° |
| 2026-05-06 10:04 | 40.37241 | -4.47925 | 6154 ft | 139 kts | 256° |
| 2026-05-06 10:04 | 40.36981 | -4.49138 | 6181 ft | 139 kts | 256° |
| 2026-05-06 10:04 | 40.36718 | -4.50362 | 6239 ft | 138 kts | 255° |
| 2026-05-06 10:04 | 40.36283 | -4.51469 | 6092 ft | 151 kts | 217° |
| 2026-05-06 10:05 | 40.35244 | -4.51892 | 6020 ft | 152 kts | 193° |
| 2026-05-06 10:05 | 40.34243 | -4.52340 | 5910 ft | 157 kts | 216° |
| 2026-05-06 10:05 | 40.33516 | -4.53396 | 5854 ft | 151 kts | 234° |
| 2026-05-06 10:05 | 40.32925 | -4.54412 | 6056 ft | 137 kts | 234° |
| 2026-05-06 10:06 | 40.32316 | -4.55464 | 5831 ft | 152 kts | 233° |
| 2026-05-06 10:06 | 40.31671 | -4.56508 | 5934 ft | 141 kts | 230° |
| 2026-05-06 10:06 | 40.31004 | -4.57454 | 5860 ft | 146 kts | 226° |
| 2026-05-06 10:06 | 40.30244 | -4.58373 | 5780 ft | 148 kts | 220° |
| 2026-05-06 10:07 | 40.29425 | -4.59134 | 5816 ft | 143 kts | 212° |
| 2026-05-06 10:07 | 40.28536 | -4.59703 | 5599 ft | 148 kts | 201° |
| 2026-05-06 10:07 | 40.27549 | -4.60117 | 5400 ft | 148 kts | 196° |
| 2026-05-06 10:07 | 40.26565 | -4.60428 | 5258 ft | 145 kts | 192° |
| 2026-05-06 10:08 | 40.25585 | -4.60803 | 5025 ft | 148 kts | 200° |
| 2026-05-06 10:08 | 40.24635 | -4.61274 | 4891 ft | 144 kts | 204° |
| 2026-05-06 10:08 | 40.23790 | -4.61996 | 4652 ft | 148 kts | 219° |
| 2026-05-06 10:08 | 40.22998 | -4.62837 | 4520 ft | 143 kts | 219° |
| 2026-05-06 10:09 | 40.22220 | -4.63655 | 4335 ft | 145 kts | 218° |
| 2026-05-06 10:09 | 40.21423 | -4.64466 | 4158 ft | 144 kts | 218° |
| 2026-05-06 10:09 | 40.20626 | -4.65250 | 4004 ft | 143 kts | 216° |
| 2026-05-06 10:09 | 40.19869 | -4.66098 | 3800 ft | 145 kts | 237° |
| 2026-05-06 10:10 | 40.19766 | -4.67323 | 3750 ft | 136 kts | 286° |
| 2026-05-06 10:10 | 40.20047 | -4.68482 | 3758 ft | 127 kts | 286° |
| 2026-05-06 10:10 | 40.20281 | -4.69578 | 3677 ft | 128 kts | 286° |
| 2026-05-06 10:10 | 40.20534 | -4.70665 | 3711 ft | 120 kts | 289° |
| 2026-05-06 10:11 | 40.20851 | -4.71687 | 3592 ft | 126 kts | 295° |
| 2026-05-06 10:11 | 40.21088 | -4.72377 | 3572 ft | 123 kts | 294° |
| 2026-05-06 10:11 | 40.21408 | -4.73396 | 3498 ft | 123 kts | 291° |
| 2026-05-06 10:11 | 40.21738 | -4.74447 | 3384 ft | 124 kts | 294° |
| 2026-05-06 10:12 | 40.22300 | -4.75253 | 3279 ft | 117 kts | 333° |
| 2026-05-06 10:12 | 40.23076 | -4.75374 | 3077 ft | 115 kts | 16° |
| 2026-05-06 10:12 | 40.23739 | -4.74862 | 2918 ft | 111 kts | 41° |
| 2026-05-06 10:12 | 40.24292 | -4.74241 | 2864 ft | 101 kts | 40° |
| 2026-05-06 10:13 | 40.24928 | -4.74089 | 2779 ft | 95 kts | 339° |
| 2026-05-06 10:13 | 40.25446 | -4.74602 | 2672 ft | 95 kts | 314° |
| 2026-05-06 10:13 | 40.25895 | -4.75274 | 2491 ft | 100 kts | 308° |
| 2026-05-06 10:13 | 40.26290 | -4.75997 | 2336 ft | 98 kts | 301° |
| 2026-05-06 10:14 | 40.26318 | -4.76862 | 2110 ft | 99 kts | 253° |
| 2026-05-06 10:14 | 40.25939 | -4.77603 | 1842 ft | 97 kts | 222° |
| 2026-05-06 10:14 | 40.25451 | -4.78167 | 1548 ft | 90 kts | 222° |
| 2026-05-06 10:14 | 40.25030 | -4.78651 | 1418 ft | 70 kts | 221° |
| 2026-05-06 10:15 | 40.24747 | -4.78972 | 1411 ft | 36 kts | 217° |
| 2026-05-06 10:15 | 40.24643 | -4.79094 | 1411 ft | 10 kts | 220° |
| 2026-05-06 10:15 | 40.24630 | -4.79130 | 1411 ft | 4 kts | 304° |
| 2026-05-06 10:15 | 40.24645 | -4.79157 | 1410 ft | 1 kts | 297° |
| 2026-05-06 10:16 | 40.24683 | -4.79216 | 1403 ft | 9 kts | 315° |
| 2026-05-06 10:16 | 40.24701 | -4.79242 | 1407 ft | 0 kts | 312° |
| 2026-05-06 10:16 | 40.24706 | -4.79249 | 1408 ft | 4 kts | 315° |
| 2026-05-06 10:16 | 40.24721 | -4.79267 | 1414 ft | 1 kts | 317° |
| 2026-05-06 10:17 | 40.24728 | -4.79287 | 1417 ft | 4 kts | 239° |
| 2026-05-06 10:17 | 40.24725 | -4.79292 | 1417 ft | 0 kts | 220° |